sensor_id;sensor_type;location;lat;lon;timestamp;P1;durP1;ratioP1;P2;durP2;ratioP2
24273;SDS011;12392;42.678;23.380;2022-11-25T00:01:04;2.05;;;1.63;;
24273;SDS011;12392;42.678;23.380;2022-11-25T00:03:37;2.45;;;1.40;;
24273;SDS011;12392;42.678;23.380;2022-11-25T00:06:19;1.20;;;1.02;;
24273;SDS011;12392;42.678;23.380;2022-11-25T00:08:46;6.03;;;1.60;;
24273;SDS011;12392;42.678;23.380;2022-11-25T00:11:14;2.38;;;1.60;;
24273;SDS011;12392;42.678;23.380;2022-11-25T00:13:40;2.65;;;1.60;;
24273;SDS011;12392;42.678;23.380;2022-11-25T00:16:10;2.33;;;1.52;;
24273;SDS011;12392;42.678;23.380;2022-11-25T00:18:38;2.05;;;1.52;;
24273;SDS011;12392;42.678;23.380;2022-11-25T00:21:05;2.10;;;1.35;;
24273;SDS011;12392;42.678;23.380;2022-11-25T00:23:31;3.85;;;1.95;;
24273;SDS011;12392;42.678;23.380;2022-11-25T00:26:04;2.03;;;1.30;;
24273;SDS011;12392;42.678;23.380;2022-11-25T00:28:37;1.77;;;1.30;;
24273;SDS011;12392;42.678;23.380;2022-11-25T00:31:13;2.38;;;1.83;;
24273;SDS011;12392;42.678;23.380;2022-11-25T00:33:41;2.03;;;1.50;;
24273;SDS011;12392;42.678;23.380;2022-11-25T00:36:12;1.70;;;1.25;;
24273;SDS011;12392;42.678;23.380;2022-11-25T00:38:42;2.30;;;1.60;;
24273;SDS011;12392;42.678;23.380;2022-11-25T00:41:08;3.58;;;1.67;;
24273;SDS011;12392;42.678;23.380;2022-11-25T00:43:52;7.65;;;2.10;;
24273;SDS011;12392;42.678;23.380;2022-11-25T00:46:36;2.53;;;1.55;;
24273;SDS011;12392;42.678;23.380;2022-11-25T00:49:02;4.30;;;1.90;;
24273;SDS011;12392;42.678;23.380;2022-11-25T00:51:28;2.47;;;1.63;;
24273;SDS011;12392;42.678;23.380;2022-11-25T00:53:54;5.15;;;2.28;;
24273;SDS011;12392;42.678;23.380;2022-11-25T00:56:19;3.50;;;2.10;;
24273;SDS011;12392;42.678;23.380;2022-11-25T00:58:47;3.72;;;1.60;;
24273;SDS011;12392;42.678;23.380;2022-11-25T01:01:13;6.22;;;2.00;;
24273;SDS011;12392;42.678;23.380;2022-11-25T01:03:39;3.03;;;1.98;;
24273;SDS011;12392;42.678;23.380;2022-11-25T01:06:06;9.98;;;2.42;;
24273;SDS011;12392;42.678;23.380;2022-11-25T01:08:33;3.92;;;2.22;;
24273;SDS011;12392;42.678;23.380;2022-11-25T01:10:59;4.25;;;2.53;;
24273;SDS011;12392;42.678;23.380;2022-11-25T01:13:29;4.47;;;2.20;;
24273;SDS011;12392;42.678;23.380;2022-11-25T01:15:55;3.95;;;1.67;;
24273;SDS011;12392;42.678;23.380;2022-11-25T01:18:21;4.10;;;2.00;;
24273;SDS011;12392;42.678;23.380;2022-11-25T01:20:47;3.38;;;2.17;;
24273;SDS011;12392;42.678;23.380;2022-11-25T01:23:13;3.10;;;1.90;;
24273;SDS011;12392;42.678;23.380;2022-11-25T01:25:38;2.75;;;1.55;;
24273;SDS011;12392;42.678;23.380;2022-11-25T01:28:05;3.03;;;1.75;;
24273;SDS011;12392;42.678;23.380;2022-11-25T01:30:31;4.55;;;2.10;;
24273;SDS011;12392;42.678;23.380;2022-11-25T01:32:56;2.10;;;1.48;;
24273;SDS011;12392;42.678;23.380;2022-11-25T01:35:22;4.47;;;1.58;;
24273;SDS011;12392;42.678;23.380;2022-11-25T01:37:48;2.60;;;1.92;;
24273;SDS011;12392;42.678;23.380;2022-11-25T01:40:14;2.50;;;1.70;;
24273;SDS011;12392;42.678;23.380;2022-11-25T01:42:44;1.48;;;1.38;;
24273;SDS011;12392;42.678;23.380;2022-11-25T01:47:53;1.98;;;1.38;;
24273;SDS011;12392;42.678;23.380;2022-11-25T01:50:22;2.85;;;1.70;;
24273;SDS011;12392;42.678;23.380;2022-11-25T01:52:49;4.07;;;1.77;;
24273;SDS011;12392;42.678;23.380;2022-11-25T01:55:18;1.92;;;1.45;;
24273;SDS011;12392;42.678;23.380;2022-11-25T01:57:49;2.58;;;1.63;;
24273;SDS011;12392;42.678;23.380;2022-11-25T02:00:17;1.83;;;1.50;;
24273;SDS011;12392;42.678;23.380;2022-11-25T02:02:44;1.85;;;1.60;;
24273;SDS011;12392;42.678;23.380;2022-11-25T02:05:11;2.88;;;1.83;;
24273;SDS011;12392;42.678;23.380;2022-11-25T02:07:40;1.70;;;1.50;;
24273;SDS011;12392;42.678;23.380;2022-11-25T02:10:13;1.27;;;1.17;;
24273;SDS011;12392;42.678;23.380;2022-11-25T02:12:40;1.33;;;1.15;;
24273;SDS011;12392;42.678;23.380;2022-11-25T02:15:06;3.22;;;1.38;;
24273;SDS011;12392;42.678;23.380;2022-11-25T02:17:32;2.10;;;1.48;;
24273;SDS011;12392;42.678;23.380;2022-11-25T02:20:04;2.72;;;1.27;;
24273;SDS011;12392;42.678;23.380;2022-11-25T02:25:23;2.95;;;1.00;;
24273;SDS011;12392;42.678;23.380;2022-11-25T02:28:00;1.40;;;0.90;;
24273;SDS011;12392;42.678;23.380;2022-11-25T02:30:29;1.77;;;1.30;;
24273;SDS011;12392;42.678;23.380;2022-11-25T02:32:55;1.50;;;1.17;;
24273;SDS011;12392;42.678;23.380;2022-11-25T02:35:24;1.45;;;1.17;;
24273;SDS011;12392;42.678;23.380;2022-11-25T02:37:51;1.63;;;0.88;;
24273;SDS011;12392;42.678;23.380;2022-11-25T02:40:19;1.55;;;1.35;;
24273;SDS011;12392;42.678;23.380;2022-11-25T02:42:46;1.15;;;0.85;;
24273;SDS011;12392;42.678;23.380;2022-11-25T02:45:14;1.92;;;1.17;;
24273;SDS011;12392;42.678;23.380;2022-11-25T02:47:42;0.88;;;0.88;;
24273;SDS011;12392;42.678;23.380;2022-11-25T02:50:07;0.90;;;0.90;;
24273;SDS011;12392;42.678;23.380;2022-11-25T02:52:33;1.65;;;1.00;;
24273;SDS011;12392;42.678;23.380;2022-11-25T02:54:59;1.25;;;1.08;;
24273;SDS011;12392;42.678;23.380;2022-11-25T02:57:25;1.65;;;1.13;;
24273;SDS011;12392;42.678;23.380;2022-11-25T02:59:50;2.45;;;1.52;;
24273;SDS011;12392;42.678;23.380;2022-11-25T03:02:16;1.70;;;1.02;;
24273;SDS011;12392;42.678;23.380;2022-11-25T03:04:41;1.30;;;1.10;;
24273;SDS011;12392;42.678;23.380;2022-11-25T03:07:07;2.58;;;1.05;;
24273;SDS011;12392;42.678;23.380;2022-11-25T03:09:33;1.67;;;1.15;;
24273;SDS011;12392;42.678;23.380;2022-11-25T03:11:58;1.42;;;0.95;;
24273;SDS011;12392;42.678;23.380;2022-11-25T03:14:43;2.08;;;1.17;;
24273;SDS011;12392;42.678;23.380;2022-11-25T03:17:08;1.42;;;1.02;;
24273;SDS011;12392;42.678;23.380;2022-11-25T03:19:34;1.05;;;0.90;;
24273;SDS011;12392;42.678;23.380;2022-11-25T03:22:00;1.15;;;1.00;;
24273;SDS011;12392;42.678;23.380;2022-11-25T03:24:25;1.80;;;1.60;;
24273;SDS011;12392;42.678;23.380;2022-11-25T03:26:51;2.95;;;1.65;;
24273;SDS011;12392;42.678;23.380;2022-11-25T03:29:17;2.55;;;1.45;;
24273;SDS011;12392;42.678;23.380;2022-11-25T03:31:42;1.63;;;1.15;;
24273;SDS011;12392;42.678;23.380;2022-11-25T03:34:08;4.15;;;1.50;;
24273;SDS011;12392;42.678;23.380;2022-11-25T03:36:34;2.17;;;1.30;;
24273;SDS011;12392;42.678;23.380;2022-11-25T03:38:59;2.63;;;1.42;;
24273;SDS011;12392;42.678;23.380;2022-11-25T03:41:25;1.90;;;1.35;;
24273;SDS011;12392;42.678;23.380;2022-11-25T03:43:51;3.08;;;1.60;;
24273;SDS011;12392;42.678;23.380;2022-11-25T03:46:16;1.17;;;1.08;;
24273;SDS011;12392;42.678;23.380;2022-11-25T03:48:42;3.17;;;1.60;;
24273;SDS011;12392;42.678;23.380;2022-11-25T03:51:08;1.95;;;1.50;;
24273;SDS011;12392;42.678;23.380;2022-11-25T03:53:34;3.22;;;1.60;;
24273;SDS011;12392;42.678;23.380;2022-11-25T03:55:59;2.75;;;1.48;;
24273;SDS011;12392;42.678;23.380;2022-11-25T03:58:25;2.85;;;1.77;;
24273;SDS011;12392;42.678;23.380;2022-11-25T04:00:51;3.97;;;1.65;;
24273;SDS011;12392;42.678;23.380;2022-11-25T04:03:16;1.42;;;1.30;;
24273;SDS011;12392;42.678;23.380;2022-11-25T04:05:42;2.50;;;1.70;;
24273;SDS011;12392;42.678;23.380;2022-11-25T04:08:08;2.03;;;1.70;;
24273;SDS011;12392;42.678;23.380;2022-11-25T04:10:33;1.75;;;1.35;;
24273;SDS011;12392;42.678;23.380;2022-11-25T04:12:59;3.42;;;1.52;;
24273;SDS011;12392;42.678;23.380;2022-11-25T04:15:25;1.33;;;1.23;;
24273;SDS011;12392;42.678;23.380;2022-11-25T04:17:50;2.42;;;1.27;;
24273;SDS011;12392;42.678;23.380;2022-11-25T04:20:16;1.70;;;1.30;;
24273;SDS011;12392;42.678;23.380;2022-11-25T04:22:42;1.30;;;1.10;;
24273;SDS011;12392;42.678;23.380;2022-11-25T04:25:08;1.63;;;0.90;;
24273;SDS011;12392;42.678;23.380;2022-11-25T04:27:33;2.00;;;1.33;;
24273;SDS011;12392;42.678;23.380;2022-11-25T04:29:59;1.90;;;1.40;;
24273;SDS011;12392;42.678;23.380;2022-11-25T04:32:25;2.15;;;1.30;;
24273;SDS011;12392;42.678;23.380;2022-11-25T04:34:50;1.33;;;1.10;;
24273;SDS011;12392;42.678;23.380;2022-11-25T04:37:16;2.45;;;1.50;;
24273;SDS011;12392;42.678;23.380;2022-11-25T04:39:42;1.25;;;1.10;;
24273;SDS011;12392;42.678;23.380;2022-11-25T04:42:08;1.48;;;1.38;;
24273;SDS011;12392;42.678;23.380;2022-11-25T04:44:52;2.72;;;1.42;;
24273;SDS011;12392;42.678;23.380;2022-11-25T04:47:17;1.70;;;1.20;;
24273;SDS011;12392;42.678;23.380;2022-11-25T04:49:43;1.80;;;1.45;;
24273;SDS011;12392;42.678;23.380;2022-11-25T04:52:09;0.82;;;0.77;;
24273;SDS011;12392;42.678;23.380;2022-11-25T04:54:34;1.20;;;1.10;;
24273;SDS011;12392;42.678;23.380;2022-11-25T04:57:00;2.70;;;1.83;;
24273;SDS011;12392;42.678;23.380;2022-11-25T04:59:26;1.90;;;1.08;;
24273;SDS011;12392;42.678;23.380;2022-11-25T05:02:04;1.00;;;0.95;;
24273;SDS011;12392;42.678;23.380;2022-11-25T05:04:30;1.48;;;1.23;;
24273;SDS011;12392;42.678;23.380;2022-11-25T05:06:56;1.92;;;1.50;;
24273;SDS011;12392;42.678;23.380;2022-11-25T05:09:22;1.95;;;1.35;;
24273;SDS011;12392;42.678;23.380;2022-11-25T05:11:47;1.65;;;1.25;;
24273;SDS011;12392;42.678;23.380;2022-11-25T05:14:13;2.50;;;1.30;;
24273;SDS011;12392;42.678;23.380;2022-11-25T05:16:39;1.13;;;1.02;;
24273;SDS011;12392;42.678;23.380;2022-11-25T05:19:04;3.30;;;1.25;;
24273;SDS011;12392;42.678;23.380;2022-11-25T05:21:31;1.25;;;1.08;;
24273;SDS011;12392;42.678;23.380;2022-11-25T05:23:57;2.83;;;1.40;;
24273;SDS011;12392;42.678;23.380;2022-11-25T05:26:22;2.00;;;1.25;;
24273;SDS011;12392;42.678;23.380;2022-11-25T05:28:48;1.52;;;1.20;;
24273;SDS011;12392;42.678;23.380;2022-11-25T05:31:14;2.08;;;1.30;;
24273;SDS011;12392;42.678;23.380;2022-11-25T05:33:39;0.77;;;0.77;;
24273;SDS011;12392;42.678;23.380;2022-11-25T05:36:05;1.33;;;0.90;;
24273;SDS011;12392;42.678;23.380;2022-11-25T05:38:31;1.38;;;1.00;;
24273;SDS011;12392;42.678;23.380;2022-11-25T05:41:00;0.90;;;0.90;;
24273;SDS011;12392;42.678;23.380;2022-11-25T05:43:28;1.50;;;1.20;;
24273;SDS011;12392;42.678;23.380;2022-11-25T05:45:54;1.27;;;1.08;;
24273;SDS011;12392;42.678;23.380;2022-11-25T05:48:20;3.28;;;0.90;;
24273;SDS011;12392;42.678;23.380;2022-11-25T05:50:45;1.15;;;0.93;;
24273;SDS011;12392;42.678;23.380;2022-11-25T05:53:11;1.60;;;1.00;;
24273;SDS011;12392;42.678;23.380;2022-11-25T05:55:38;2.75;;;1.27;;
24273;SDS011;12392;42.678;23.380;2022-11-25T05:58:03;3.80;;;1.40;;
24273;SDS011;12392;42.678;23.380;2022-11-25T06:00:30;4.78;;;1.55;;
24273;SDS011;12392;42.678;23.380;2022-11-25T06:02:56;6.05;;;1.13;;
24273;SDS011;12392;42.678;23.380;2022-11-25T06:05:22;5.10;;;1.48;;
24273;SDS011;12392;42.678;23.380;2022-11-25T06:07:48;1.25;;;1.10;;
24273;SDS011;12392;42.678;23.380;2022-11-25T06:10:15;1.67;;;1.20;;
24273;SDS011;12392;42.678;23.380;2022-11-25T06:12:41;3.03;;;1.52;;
24273;SDS011;12392;42.678;23.380;2022-11-25T06:15:07;2.97;;;1.65;;
24273;SDS011;12392;42.678;23.380;2022-11-25T06:17:34;2.00;;;1.48;;
24273;SDS011;12392;42.678;23.380;2022-11-25T06:19:59;2.67;;;1.58;;
24273;SDS011;12392;42.678;23.380;2022-11-25T06:22:25;2.50;;;1.45;;
24273;SDS011;12392;42.678;23.380;2022-11-25T06:24:51;3.03;;;1.55;;
24273;SDS011;12392;42.678;23.380;2022-11-25T06:27:17;1.77;;;0.98;;
24273;SDS011;12392;42.678;23.380;2022-11-25T06:29:42;2.35;;;1.40;;
24273;SDS011;12392;42.678;23.380;2022-11-25T06:32:08;1.70;;;1.38;;
24273;SDS011;12392;42.678;23.380;2022-11-25T06:34:34;1.10;;;1.00;;
24273;SDS011;12392;42.678;23.380;2022-11-25T06:37:00;2.35;;;1.15;;
24273;SDS011;12392;42.678;23.380;2022-11-25T06:39:26;1.98;;;1.60;;
24273;SDS011;12392;42.678;23.380;2022-11-25T06:41:51;4.18;;;1.60;;
24273;SDS011;12392;42.678;23.380;2022-11-25T06:44:17;2.17;;;1.15;;
24273;SDS011;12392;42.678;23.380;2022-11-25T06:46:43;1.45;;;1.30;;
24273;SDS011;12392;42.678;23.380;2022-11-25T06:49:12;1.75;;;1.38;;
24273;SDS011;12392;42.678;23.380;2022-11-25T06:51:37;4.18;;;1.27;;
24273;SDS011;12392;42.678;23.380;2022-11-25T06:54:03;3.00;;;1.55;;
24273;SDS011;12392;42.678;23.380;2022-11-25T06:56:29;1.92;;;1.63;;
24273;SDS011;12392;42.678;23.380;2022-11-25T06:58:55;2.00;;;1.20;;
24273;SDS011;12392;42.678;23.380;2022-11-25T07:01:22;6.72;;;1.75;;
24273;SDS011;12392;42.678;23.380;2022-11-25T07:03:50;3.50;;;1.45;;
24273;SDS011;12392;42.678;23.380;2022-11-25T07:06:17;1.88;;;1.67;;
24273;SDS011;12392;42.678;23.380;2022-11-25T07:08:44;3.90;;;2.10;;
24273;SDS011;12392;42.678;23.380;2022-11-25T07:11:15;3.72;;;1.60;;
24273;SDS011;12392;42.678;23.380;2022-11-25T07:13:52;1.90;;;1.65;;
24273;SDS011;12392;42.678;23.380;2022-11-25T07:16:19;2.35;;;1.70;;
24273;SDS011;12392;42.678;23.380;2022-11-25T07:18:45;2.97;;;2.00;;
24273;SDS011;12392;42.678;23.380;2022-11-25T07:21:15;4.13;;;2.28;;
24273;SDS011;12392;42.678;23.380;2022-11-25T07:23:43;2.40;;;1.55;;
24273;SDS011;12392;42.678;23.380;2022-11-25T07:26:10;3.28;;;1.70;;
24273;SDS011;12392;42.678;23.380;2022-11-25T07:28:38;3.75;;;1.65;;
24273;SDS011;12392;42.678;23.380;2022-11-25T07:31:17;2.78;;;2.08;;
24273;SDS011;12392;42.678;23.380;2022-11-25T07:33:52;3.53;;;1.88;;
24273;SDS011;12392;42.678;23.380;2022-11-25T07:36:18;2.05;;;1.75;;
24273;SDS011;12392;42.678;23.380;2022-11-25T07:38:44;3.10;;;2.00;;
24273;SDS011;12392;42.678;23.380;2022-11-25T07:41:11;2.10;;;1.60;;
24273;SDS011;12392;42.678;23.380;2022-11-25T07:43:43;2.85;;;1.83;;
24273;SDS011;12392;42.678;23.380;2022-11-25T07:46:30;2.65;;;1.92;;
24273;SDS011;12392;42.678;23.380;2022-11-25T07:49:01;3.80;;;2.40;;
24273;SDS011;12392;42.678;23.380;2022-11-25T07:53:56;2.58;;;2.38;;
24273;SDS011;12392;42.678;23.380;2022-11-25T07:56:22;4.25;;;2.28;;
24273;SDS011;12392;42.678;23.380;2022-11-25T07:58:48;3.00;;;1.83;;
24273;SDS011;12392;42.678;23.380;2022-11-25T08:01:14;3.35;;;2.33;;
24273;SDS011;12392;42.678;23.380;2022-11-25T08:03:42;1.95;;;1.45;;
24273;SDS011;12392;42.678;23.380;2022-11-25T08:06:17;2.00;;;1.80;;
24273;SDS011;12392;42.678;23.380;2022-11-25T08:08:45;4.82;;;2.15;;
24273;SDS011;12392;42.678;23.380;2022-11-25T08:11:13;2.03;;;1.50;;
24273;SDS011;12392;42.678;23.380;2022-11-25T08:13:41;2.47;;;1.70;;
24273;SDS011;12392;42.678;23.380;2022-11-25T08:16:07;2.90;;;1.80;;
24273;SDS011;12392;42.678;23.380;2022-11-25T08:18:34;2.38;;;1.70;;
24273;SDS011;12392;42.678;23.380;2022-11-25T08:21:00;2.42;;;1.80;;
24273;SDS011;12392;42.678;23.380;2022-11-25T08:23:31;3.70;;;2.10;;
24273;SDS011;12392;42.678;23.380;2022-11-25T08:26:01;2.10;;;1.70;;
24273;SDS011;12392;42.678;23.380;2022-11-25T08:28:35;2.03;;;1.52;;
24273;SDS011;12392;42.678;23.380;2022-11-25T08:31:06;3.35;;;2.05;;
24273;SDS011;12392;42.678;23.380;2022-11-25T08:33:33;2.35;;;1.95;;
24273;SDS011;12392;42.678;23.380;2022-11-25T08:35:59;2.35;;;1.45;;
24273;SDS011;12392;42.678;23.380;2022-11-25T08:38:25;2.33;;;1.50;;
24273;SDS011;12392;42.678;23.380;2022-11-25T08:40:51;3.20;;;1.63;;
24273;SDS011;12392;42.678;23.380;2022-11-25T08:43:17;2.38;;;1.83;;
24273;SDS011;12392;42.678;23.380;2022-11-25T08:45:45;4.93;;;2.03;;
24273;SDS011;12392;42.678;23.380;2022-11-25T08:48:11;2.08;;;1.63;;
24273;SDS011;12392;42.678;23.380;2022-11-25T08:50:37;2.78;;;2.05;;
24273;SDS011;12392;42.678;23.380;2022-11-25T08:53:03;3.33;;;1.98;;
24273;SDS011;12392;42.678;23.380;2022-11-25T08:55:29;2.75;;;1.73;;
24273;SDS011;12392;42.678;23.380;2022-11-25T08:57:54;3.03;;;2.00;;
24273;SDS011;12392;42.678;23.380;2022-11-25T09:00:20;2.72;;;1.45;;
24273;SDS011;12392;42.678;23.380;2022-11-25T09:02:46;3.67;;;2.20;;
24273;SDS011;12392;42.678;23.380;2022-11-25T09:05:13;2.20;;;2.00;;
24273;SDS011;12392;42.678;23.380;2022-11-25T09:07:40;4.25;;;2.30;;
24273;SDS011;12392;42.678;23.380;2022-11-25T09:10:08;4.78;;;2.33;;
24273;SDS011;12392;42.678;23.380;2022-11-25T09:12:36;10.40;;;2.22;;
24273;SDS011;12392;42.678;23.380;2022-11-25T09:15:02;4.10;;;2.75;;
24273;SDS011;12392;42.678;23.380;2022-11-25T09:17:28;4.82;;;2.20;;
24273;SDS011;12392;42.678;23.380;2022-11-25T09:19:54;4.47;;;1.95;;
24273;SDS011;12392;42.678;23.380;2022-11-25T09:22:19;3.63;;;2.28;;
24273;SDS011;12392;42.678;23.380;2022-11-25T09:24:45;5.13;;;2.67;;
24273;SDS011;12392;42.678;23.380;2022-11-25T09:27:11;3.92;;;2.53;;
24273;SDS011;12392;42.678;23.380;2022-11-25T09:29:36;4.25;;;1.98;;
24273;SDS011;12392;42.678;23.380;2022-11-25T09:32:02;5.65;;;2.47;;
24273;SDS011;12392;42.678;23.380;2022-11-25T09:34:28;2.40;;;1.98;;
24273;SDS011;12392;42.678;23.380;2022-11-25T09:36:54;2.78;;;1.90;;
24273;SDS011;12392;42.678;23.380;2022-11-25T09:39:19;2.38;;;1.48;;
24273;SDS011;12392;42.678;23.380;2022-11-25T09:50:38;4.35;;;2.97;;
24273;SDS011;12392;42.678;23.380;2022-11-25T09:53:33;2.58;;;1.80;;
24273;SDS011;12392;42.678;23.380;2022-11-25T10:02:11;3.70;;;2.00;;
24273;SDS011;12392;42.678;23.380;2022-11-25T10:04:44;1.63;;;1.52;;
24273;SDS011;12392;42.678;23.380;2022-11-25T10:07:16;4.38;;;2.08;;
24273;SDS011;12392;42.678;23.380;2022-11-25T10:09:47;3.17;;;1.98;;
24273;SDS011;12392;42.678;23.380;2022-11-25T10:15:11;2.95;;;1.73;;
24273;SDS011;12392;42.678;23.380;2022-11-25T10:17:44;3.83;;;1.80;;
24273;SDS011;12392;42.678;23.380;2022-11-25T10:23:03;3.30;;;1.60;;
24273;SDS011;12392;42.678;23.380;2022-11-25T10:25:35;1.50;;;1.40;;
24273;SDS011;12392;42.678;23.380;2022-11-25T10:28:04;1.90;;;1.60;;
24273;SDS011;12392;42.678;23.380;2022-11-25T10:30:44;2.15;;;1.70;;
24273;SDS011;12392;42.678;23.380;2022-11-25T10:33:46;3.42;;;1.50;;
24273;SDS011;12392;42.678;23.380;2022-11-25T10:38:54;2.55;;;1.52;;
24273;SDS011;12392;42.678;23.380;2022-11-25T10:41:45;3.15;;;1.17;;
24273;SDS011;12392;42.678;23.380;2022-11-25T10:44:25;4.20;;;1.40;;
24273;SDS011;12392;42.678;23.380;2022-11-25T10:47:00;2.72;;;1.73;;
24273;SDS011;12392;42.678;23.380;2022-11-25T10:49:45;2.90;;;1.52;;
24273;SDS011;12392;42.678;23.380;2022-11-25T10:52:14;2.58;;;1.35;;
24273;SDS011;12392;42.678;23.380;2022-11-25T10:54:54;2.63;;;1.10;;
24273;SDS011;12392;42.678;23.380;2022-11-25T10:57:37;2.17;;;1.17;;
24273;SDS011;12392;42.678;23.380;2022-11-25T11:00:04;1.92;;;1.33;;
24273;SDS011;12392;42.678;23.380;2022-11-25T11:02:38;1.75;;;1.50;;
24273;SDS011;12392;42.678;23.380;2022-11-25T11:07:35;2.25;;;1.30;;
24273;SDS011;12392;42.678;23.380;2022-11-25T11:10:12;2.90;;;1.60;;
24273;SDS011;12392;42.678;23.380;2022-11-25T11:21:02;3.45;;;1.48;;
24273;SDS011;12392;42.678;23.380;2022-11-25T11:23:30;3.70;;;1.90;;
24273;SDS011;12392;42.678;23.380;2022-11-25T11:31:04;2.72;;;2.00;;
24273;SDS011;12392;42.678;23.380;2022-11-25T11:33:40;4.30;;;1.73;;
24273;SDS011;12392;42.678;23.380;2022-11-25T11:55:24;2.78;;;1.77;;
24273;SDS011;12392;42.678;23.380;2022-11-25T11:58:03;3.38;;;1.33;;
24273;SDS011;12392;42.678;23.380;2022-11-25T12:00:51;2.70;;;1.75;;
24273;SDS011;12392;42.678;23.380;2022-11-25T12:03:28;4.18;;;1.73;;
24273;SDS011;12392;42.678;23.380;2022-11-25T12:05:55;1.40;;;1.27;;
24273;SDS011;12392;42.678;23.380;2022-11-25T12:10:53;2.97;;;2.00;;
24273;SDS011;12392;42.678;23.380;2022-11-25T12:13:26;7.20;;;1.83;;
24273;SDS011;12392;42.678;23.380;2022-11-25T12:15:59;3.95;;;1.83;;
24273;SDS011;12392;42.678;23.380;2022-11-25T12:26:19;2.50;;;1.70;;
24273;SDS011;12392;42.678;23.380;2022-11-25T12:28:51;4.03;;;2.03;;
24273;SDS011;12392;42.678;23.380;2022-11-25T12:31:25;2.97;;;1.80;;
24273;SDS011;12392;42.678;23.380;2022-11-25T12:34:12;2.58;;;1.92;;
24273;SDS011;12392;42.678;23.380;2022-11-25T12:36:45;1.98;;;1.80;;
24273;SDS011;12392;42.678;23.380;2022-11-25T12:39:17;2.08;;;1.88;;
24273;SDS011;12392;42.678;23.380;2022-11-25T12:41:52;2.67;;;1.67;;
24273;SDS011;12392;42.678;23.380;2022-11-25T12:44:34;2.67;;;1.50;;
24273;SDS011;12392;42.678;23.380;2022-11-25T12:47:13;5.00;;;2.03;;
24273;SDS011;12392;42.678;23.380;2022-11-25T12:49:41;3.13;;;1.73;;
24273;SDS011;12392;42.678;23.380;2022-11-25T12:55:18;4.60;;;2.72;;
24273;SDS011;12392;42.678;23.380;2022-11-25T12:58:08;3.70;;;1.98;;
24273;SDS011;12392;42.678;23.380;2022-11-25T13:12:16;3.30;;;2.10;;
24273;SDS011;12392;42.678;23.380;2022-11-25T13:17:40;2.88;;;1.80;;
24273;SDS011;12392;42.678;23.380;2022-11-25T13:25:29;3.38;;;2.00;;
24273;SDS011;12392;42.678;23.380;2022-11-25T13:27:56;3.78;;;2.55;;
24273;SDS011;12392;42.678;23.380;2022-11-25T13:35:49;2.95;;;2.00;;
24273;SDS011;12392;42.678;23.380;2022-11-25T13:38:34;5.03;;;2.42;;
24273;SDS011;12392;42.678;23.380;2022-11-25T13:46:39;7.85;;;2.08;;
24273;SDS011;12392;42.678;23.380;2022-11-25T13:54:46;3.53;;;2.30;;
24273;SDS011;12392;42.678;23.380;2022-11-25T13:57:26;7.82;;;2.80;;
24273;SDS011;12392;42.678;23.380;2022-11-25T13:59:57;3.67;;;2.72;;
24273;SDS011;12392;42.678;23.380;2022-11-25T14:13:16;4.80;;;3.08;;
24273;SDS011;12392;42.678;23.380;2022-11-25T14:24:01;4.85;;;2.92;;
24273;SDS011;12392;42.678;23.380;2022-11-25T14:26:50;5.13;;;3.10;;
24273;SDS011;12392;42.678;23.380;2022-11-25T14:29:20;5.43;;;2.88;;
24273;SDS011;12392;42.678;23.380;2022-11-25T14:31:57;5.20;;;3.03;;
24273;SDS011;12392;42.678;23.380;2022-11-25T14:34:31;3.22;;;2.58;;
24273;SDS011;12392;42.678;23.380;2022-11-25T14:37:10;5.75;;;3.35;;
24273;SDS011;12392;42.678;23.380;2022-11-25T14:42:18;6.05;;;3.78;;
24273;SDS011;12392;42.678;23.380;2022-11-25T14:44:50;7.22;;;3.85;;
24273;SDS011;12392;42.678;23.380;2022-11-25T14:47:20;13.20;;;4.13;;
24273;SDS011;12392;42.678;23.380;2022-11-25T14:49:51;5.97;;;4.10;;
24273;SDS011;12392;42.678;23.380;2022-11-25T14:52:19;6.97;;;3.85;;
24273;SDS011;12392;42.678;23.380;2022-11-25T14:54:49;7.65;;;4.00;;
24273;SDS011;12392;42.678;23.380;2022-11-25T14:57:20;9.07;;;3.92;;
24273;SDS011;12392;42.678;23.380;2022-11-25T14:59:51;5.00;;;3.70;;
24273;SDS011;12392;42.678;23.380;2022-11-25T15:02:32;6.43;;;4.22;;
24273;SDS011;12392;42.678;23.380;2022-11-25T15:05:18;8.05;;;5.07;;
24273;SDS011;12392;42.678;23.380;2022-11-25T15:07:59;7.45;;;4.05;;
24273;SDS011;12392;42.678;23.380;2022-11-25T15:16:19;10.52;;;5.22;;
24273;SDS011;12392;42.678;23.380;2022-11-25T15:18:49;7.13;;;4.75;;
24273;SDS011;12392;42.678;23.380;2022-11-25T15:21:29;8.85;;;5.00;;
24273;SDS011;12392;42.678;23.380;2022-11-25T15:23:57;13.52;;;4.82;;
24273;SDS011;12392;42.678;23.380;2022-11-25T15:26:24;6.07;;;3.67;;
24273;SDS011;12392;42.678;23.380;2022-11-25T15:31:32;6.78;;;3.97;;
24273;SDS011;12392;42.678;23.380;2022-11-25T15:34:00;9.63;;;4.78;;
24273;SDS011;12392;42.678;23.380;2022-11-25T15:36:27;6.65;;;4.30;;
24273;SDS011;12392;42.678;23.380;2022-11-25T15:38:53;8.48;;;4.53;;
24273;SDS011;12392;42.678;23.380;2022-11-25T15:41:33;8.73;;;4.63;;
24273;SDS011;12392;42.678;23.380;2022-11-25T15:44:00;6.65;;;4.30;;
24273;SDS011;12392;42.678;23.380;2022-11-25T15:46:27;9.80;;;4.18;;
24273;SDS011;12392;42.678;23.380;2022-11-25T15:48:56;7.47;;;4.43;;
24273;SDS011;12392;42.678;23.380;2022-11-25T15:51:27;6.45;;;4.13;;
24273;SDS011;12392;42.678;23.380;2022-11-25T15:54:19;11.95;;;4.88;;
24273;SDS011;12392;42.678;23.380;2022-11-25T15:56:54;9.25;;;3.83;;
24273;SDS011;12392;42.678;23.380;2022-11-25T16:10:31;4.75;;;2.80;;
24273;SDS011;12392;42.678;23.380;2022-11-25T16:18:39;6.43;;;3.38;;
24273;SDS011;12392;42.678;23.380;2022-11-25T16:21:16;5.97;;;3.00;;
24273;SDS011;12392;42.678;23.380;2022-11-25T16:23:46;5.35;;;3.25;;
24273;SDS011;12392;42.678;23.380;2022-11-25T16:26:27;7.43;;;3.38;;
24273;SDS011;12392;42.678;23.380;2022-11-25T16:28:57;4.93;;;2.58;;
24273;SDS011;12392;42.678;23.380;2022-11-25T16:31:24;4.75;;;2.60;;
24273;SDS011;12392;42.678;23.380;2022-11-25T16:33:54;7.53;;;3.55;;
24273;SDS011;12392;42.678;23.380;2022-11-25T16:36:35;4.80;;;3.00;;
24273;SDS011;12392;42.678;23.380;2022-11-25T16:39:01;6.95;;;2.95;;
24273;SDS011;12392;42.678;23.380;2022-11-25T16:41:27;5.13;;;2.38;;
24273;SDS011;12392;42.678;23.380;2022-11-25T16:43:53;4.35;;;2.63;;
24273;SDS011;12392;42.678;23.380;2022-11-25T16:46:19;6.18;;;2.53;;
24273;SDS011;12392;42.678;23.380;2022-11-25T16:48:45;5.53;;;2.90;;
24273;SDS011;12392;42.678;23.380;2022-11-25T16:51:15;3.42;;;2.40;;
24273;SDS011;12392;42.678;23.380;2022-11-25T16:53:42;4.10;;;2.47;;
24273;SDS011;12392;42.678;23.380;2022-11-25T16:56:12;4.13;;;2.45;;
24273;SDS011;12392;42.678;23.380;2022-11-25T16:58:40;3.35;;;2.60;;
24273;SDS011;12392;42.678;23.380;2022-11-25T17:01:08;7.90;;;3.08;;
24273;SDS011;12392;42.678;23.380;2022-11-25T17:03:37;4.03;;;2.45;;
24273;SDS011;12392;42.678;23.380;2022-11-25T17:06:07;4.13;;;2.90;;
24273;SDS011;12392;42.678;23.380;2022-11-25T17:08:36;5.07;;;2.45;;
24273;SDS011;12392;42.678;23.380;2022-11-25T17:11:02;5.35;;;3.00;;
24273;SDS011;12392;42.678;23.380;2022-11-25T17:13:27;4.88;;;2.30;;
24273;SDS011;12392;42.678;23.380;2022-11-25T17:15:53;6.50;;;2.85;;
24273;SDS011;12392;42.678;23.380;2022-11-25T17:18:19;3.80;;;2.50;;
24273;SDS011;12392;42.678;23.380;2022-11-25T17:20:46;3.78;;;2.67;;
24273;SDS011;12392;42.678;23.380;2022-11-25T17:23:13;5.13;;;2.90;;
24273;SDS011;12392;42.678;23.380;2022-11-25T17:25:42;5.10;;;2.70;;
24273;SDS011;12392;42.678;23.380;2022-11-25T17:28:17;2.85;;;2.08;;